Time;durP1;ratioP1;P1;durP2;ratioP2;P2;SDS_P1;SDS_P2;PMS_P1;PMS_P2;Temp;Humidity;BMP_temperature;BMP_pressure;BME280_temperature;BME280_humidity;BME280_pressure;Samples;Min_cycle;Max_cycle;Signal;HPM_P1;HPM_P2
2023/06/21 00:01:38;;;;;;;18.52;16.58;;;20.50;99.90;;;;;;4997602;28;20050;-85
2023/06/21 00:04:08;;;;;;;21.55;19.25;;;20.70;99.90;;;;;;4979141;28;20074;-86
2023/06/21 00:06:34;;;;;;;21.83;16.90;;;20.60;99.90;;;;;;4997283;28;20102;-86
2023/06/21 00:09:07;;;;;;;17.15;14.93;;;20.60;99.90;;;;;;4964902;28;20049;-86
2023/06/21 00:11:33;;;;;;;19.90;17.90;;;20.60;99.90;;;;;;4978024;28;20069;-86
2023/06/21 00:13:59;;;;;;;24.58;22.00;;;20.60;99.90;;;;;;4978779;28;20050;-86
2023/06/21 00:16:24;;;;;;;23.17;20.80;;;20.50;99.90;;;;;;4997668;28;20417;-86
2023/06/21 00:18:50;;;;;;;18.83;16.80;;;20.50;99.90;;;;;;4977405;28;20057;-86
2023/06/21 00:21:16;;;;;;;24.60;21.80;;;20.50;99.90;;;;;;4978181;28;20042;-86
2023/06/21 00:23:43;;;;;;;24.40;21.45;;;20.50;99.90;;;;;;4994887;28;20064;-86
2023/06/21 00:26:09;;;;;;;19.95;16.08;;;20.50;99.90;;;;;;4962258;28;20042;-86
2023/06/21 00:28:35;;;;;;;20.40;17.90;;;20.50;99.90;;;;;;4964928;28;20041;-86
2023/06/21 00:31:01;;;;;;;22.55;20.08;;;20.50;99.90;;;;;;4970898;28;20070;-87
2023/06/21 00:33:27;;;;;;;24.90;21.95;;;20.50;99.90;;;;;;4976537;28;20046;-86
2023/06/21 00:35:55;;;;;;;16.85;14.82;;;20.50;99.90;;;;;;4977356;28;20031;-86
2023/06/21 00:38:21;;;;;;;18.80;16.27;;;20.50;99.90;;;;;;4990515;28;20046;-86
2023/06/21 00:40:49;;;;;;;19.95;17.67;;;20.80;99.90;;;;;;4975369;28;20031;-87
2023/06/21 00:43:16;;;;;;;19.70;17.48;;;20.50;99.90;;;;;;4974772;28;20085;-87
2023/06/21 00:45:48;;;;;;;20.48;17.55;;;20.50;99.90;;;;;;4991291;28;20039;-86
2023/06/21 00:48:14;;;;;;;25.08;21.92;;;20.50;99.90;;;;;;4990359;28;20066;-87
2023/06/21 00:50:40;;;;;;;22.77;20.42;;;20.60;99.90;;;;;;4989412;28;20468;-86
2023/06/21 00:53:06;;;;;;;22.70;20.38;;;20.50;99.90;;;;;;4972263;28;20042;-87
2023/06/21 00:55:33;;;;;;;23.05;20.13;;;20.50;99.90;;;;;;4958566;28;20125;-87
2023/06/21 00:57:59;;;;;;;20.83;18.70;;;20.60;99.90;;;;;;4993106;28;20045;-87
2023/06/21 01:00:25;;;;;;;25.05;22.45;;;20.50;99.90;;;;;;4974763;28;20058;-87
2023/06/21 01:02:56;;;;;;;21.85;18.70;;;20.50;99.90;;;;;;4988838;28;20049;-87
2023/06/21 01:05:24;;;;;;;24.77;20.92;;;20.40;99.90;;;;;;4972308;28;20046;-87
2023/06/21 01:08:02;;;;;;;24.42;21.92;;;20.40;99.90;;;;;;4977990;28;20098;-87
2023/06/21 01:10:55;;;;;;;24.58;21.88;;;20.40;99.90;;;;;;4961199;28;20386;-87
2023/06/21 01:13:38;;;;;;;23.27;20.80;;;20.30;99.90;;;;;;4988612;28;20046;-86
2023/06/21 01:16:32;;;;;;;26.77;22.38;;;20.30;99.90;;;;;;4998530;28;20038;-86
2023/06/21 01:19:03;;;;;;;24.35;20.75;;;20.30;99.90;;;;;;4981183;28;20073;-85
2023/06/21 01:21:30;;;;;;;21.38;16.23;;;20.30;99.90;;;;;;4999249;28;20038;-86
2023/06/21 01:24:13;;;;;;;20.08;17.73;;;20.30;99.90;;;;;;4979340;28;20049;-86
2023/06/21 01:27:08;;;;;;;19.17;17.23;;;20.30;99.90;;;;;;4998366;28;20089;-85
2023/06/21 01:29:35;;;;;;;26.35;20.88;;;20.20;99.90;;;;;;4975488;28;20046;-85
2023/06/21 01:32:03;;;;;;;23.45;20.85;;;20.20;99.90;;;;;;4978126;28;20546;-86
2023/06/21 01:34:30;;;;;;;27.95;20.48;;;20.20;99.90;;;;;;4996092;28;20052;-85
2023/06/21 01:36:59;;;;;;;22.77;19.90;;;20.20;99.90;;;;;;4993149;28;20066;-86
2023/06/21 01:39:28;;;;;;;21.85;19.02;;;20.10;99.90;;;;;;4958924;28;20056;-86
2023/06/21 01:41:54;;;;;;;19.95;17.67;;;20.10;99.90;;;;;;4996031;28;20077;-87
2023/06/21 01:44:21;;;;;;;25.25;20.17;;;20.00;99.90;;;;;;4980000;28;20034;-87
2023/06/21 01:46:51;;;;;;;21.88;19.23;;;20.00;99.90;;;;;;4979339;28;20102;-86
2023/06/21 01:49:18;;;;;;;24.05;20.20;;;20.00;99.90;;;;;;4962336;28;20038;-86
2023/06/21 01:51:46;;;;;;;20.00;17.02;;;20.00;99.90;;;;;;4994207;28;20050;-86
2023/06/21 01:54:15;;;;;;;22.48;18.05;;;20.00;99.90;;;;;;4955309;28;20038;-85
2023/06/21 01:56:43;;;;;;;23.10;20.35;;;20.00;99.90;;;;;;4975761;28;20042;-86
2023/06/21 01:59:09;;;;;;;24.02;20.48;;;20.00;99.90;;;;;;4972451;28;20034;-87
2023/06/21 02:01:39;;;;;;;21.85;19.48;;;20.00;99.90;;;;;;4993980;28;20106;-87
2023/06/21 02:04:07;;;;;;;24.27;20.05;;;20.00;99.90;;;;;;4993366;28;20045;-87
2023/06/21 02:06:35;;;;;;;24.45;20.10;;;20.00;99.90;;;;;;4977569;28;20050;-87
2023/06/21 02:09:05;;;;;;;26.02;22.52;;;19.90;99.90;;;;;;4980562;28;20030;-88
2023/06/21 02:11:31;;;;;;;23.40;20.85;;;19.90;99.90;;;;;;4963540;28;20030;-87
2023/06/21 02:13:58;;;;;;;22.00;19.63;;;19.80;99.90;;;;;;4979028;28;20180;-87
2023/06/21 02:16:25;;;;;;;20.45;18.27;;;19.80;99.90;;;;;;5001262;28;20055;-85
2023/06/21 02:18:51;;;;;;;25.42;21.60;;;19.80;99.90;;;;;;4976475;28;20535;-88
2023/06/21 02:21:17;;;;;;;21.38;17.80;;;19.70;99.90;;;;;;4980224;28;20043;-85
2023/06/21 02:23:43;;;;;;;25.20;22.02;;;19.70;99.90;;;;;;4982136;28;20038;-86
2023/06/21 02:26:09;;;;;;;30.00;23.38;;;19.70;99.90;;;;;;4999412;28;20034;-87
2023/06/21 02:28:36;;;;;;;18.88;16.30;;;19.60;99.90;;;;;;4982800;28;20053;-87
2023/06/21 02:31:05;;;;;;;28.10;24.95;;;19.70;99.90;;;;;;4980318;28;20446;-87
2023/06/21 02:33:33;;;;;;;32.92;26.63;;;19.70;99.90;;;;;;4951604;28;20046;-86
2023/06/21 02:35:59;;;;;;;30.25;25.55;;;19.70;99.90;;;;;;4986681;28;20034;-87
2023/06/21 02:38:25;;;;;;;25.50;22.10;;;19.70;99.90;;;;;;5000331;28;20027;-88
2023/06/21 02:40:52;;;;;;;31.67;27.23;;;19.60;99.90;;;;;;4983037;28;20042;-87
2023/06/21 02:43:18;;;;;;;30.88;27.50;;;19.70;99.90;;;;;;4977370;28;20090;-87
2023/06/21 02:45:45;;;;;;;31.40;27.17;;;19.70;99.90;;;;;;4999472;28;20090;-87
2023/06/21 02:48:11;;;;;;;30.40;25.65;;;19.70;99.90;;;;;;4965867;28;20101;-88
2023/06/21 02:50:37;;;;;;;26.33;23.17;;;19.60;99.90;;;;;;4999295;28;20136;-87
2023/06/21 02:53:03;;;;;;;36.95;29.63;;;19.80;99.90;;;;;;5000945;28;20069;-87
2023/06/21 02:55:29;;;;;;;26.35;20.55;;;19.70;99.90;;;;;;5000539;28;20037;-87
2023/06/21 02:57:59;;;;;;;39.47;32.67;;;19.60;99.90;;;;;;4978357;28;20057;-87
2023/06/21 03:00:31;;;;;;;36.65;29.58;;;19.70;99.90;;;;;;4979628;28;20054;-87
2023/06/21 03:03:01;;;;;;;38.92;32.58;;;19.70;99.90;;;;;;4965738;28;20093;-86
2023/06/21 03:05:28;;;;;;;36.97;32.95;;;19.60;99.90;;;;;;5000692;28;20046;-87
2023/06/21 03:08:05;;;;;;;42.55;35.17;;;19.30;99.90;;;;;;4960550;28;20093;-88
2023/06/21 03:10:34;;;;;;;42.53;34.47;;;19.60;99.90;;;;;;4978548;28;20042;-87
2023/06/21 03:13:00;;;;;;;41.90;35.00;;;19.60;99.90;;;;;;4981139;28;20034;-85
2023/06/21 03:15:26;;;;;;;42.85;35.25;;;19.60;99.90;;;;;;4980892;28;20413;-86
2023/06/21 03:17:52;;;;;;;44.80;36.65;;;19.60;99.90;;;;;;4980752;28;20049;-87
2023/06/21 03:20:18;;;;;;;38.70;31.77;;;19.50;99.90;;;;;;4977657;28;20042;-87
2023/06/21 03:22:49;;;;;;;41.30;34.30;;;19.50;99.90;;;;;;4999186;28;20036;-84
2023/06/21 03:25:15;;;;;;;45.40;36.00;;;19.50;99.90;;;;;;4980418;28;21439;-87
2023/06/21 03:27:42;;;;;;;39.30;33.40;;;19.50;99.90;;;;;;4977625;28;20493;-87
2023/06/21 03:30:15;;;;;;;34.97;28.42;;;19.50;99.90;;;;;;4979124;28;20031;-86
2023/06/21 03:32:46;;;;;;;40.75;33.97;;;19.50;99.90;;;;;;4952456;28;20568;-86
2023/06/21 03:35:14;;;;;;;38.55;32.75;;;19.60;99.90;;;;;;4995326;28;20034;-87
2023/06/21 03:37:50;;;;;;;43.63;35.58;;;19.60;99.90;;;;;;4994822;28;20043;-87
2023/06/21 03:40:22;;;;;;;48.10;39.60;;;19.60;99.90;;;;;;4995579;28;20046;-87
2023/06/21 03:42:48;;;;;;;52.47;42.35;;;19.60;99.90;;;;;;4996699;28;20048;-87
2023/06/21 03:45:17;;;;;;;49.10;40.38;;;19.70;99.90;;;;;;4980723;28;20085;-86
2023/06/21 03:47:46;;;;;;;42.50;34.08;;;19.70;99.90;;;;;;4977542;28;20197;-88
2023/06/21 03:50:13;;;;;;;48.50;39.15;;;19.60;99.90;;;;;;4997869;28;20042;-87
2023/06/21 03:52:39;;;;;;;54.17;42.53;;;19.60;99.90;;;;;;4992301;28;20042;-87
2023/06/21 03:55:07;;;;;;;53.58;41.33;;;19.30;99.90;;;;;;4963749;28;20558;-88
2023/06/21 03:57:33;;;;;;;51.03;40.50;;;19.60;99.90;;;;;;4993451;28;20512;-88
2023/06/21 03:59:58;;;;;;;50.10;40.35;;;19.60;99.90;;;;;;4989734;28;20046;-88
2023/06/21 04:02:24;;;;;;;43.85;35.92;;;19.60;99.90;;;;;;4994038;28;20062;-88
2023/06/21 04:04:51;;;;;;;51.25;40.90;;;19.50;99.90;;;;;;4975900;28;20115;-86
2023/06/21 04:07:22;;;;;;;49.50;38.67;;;19.50;99.90;;;;;;4964535;28;20034;-88
2023/06/21 04:09:49;;;;;;;53.67;41.28;;;19.50;99.90;;;;;;4967114;28;20042;-87
2023/06/21 04:12:15;;;;;;;52.97;41.78;;;19.50;99.90;;;;;;4996808;28;20088;-87
2023/06/21 04:14:41;;;;;;;54.90;41.20;;;19.50;99.90;;;;;;4974672;28;20042;-87
2023/06/21 04:17:07;;;;;;;47.08;38.58;;;19.40;99.90;;;;;;4957820;28;20057;-88
2023/06/21 04:19:35;;;;;;;50.53;40.10;;;19.40;99.90;;;;;;4958375;28;20117;-86
2023/06/21 04:22:02;;;;;;;47.08;37.47;;;19.40;99.90;;;;;;4996486;28;20081;-87
2023/06/21 04:24:28;;;;;;;42.17;33.67;;;19.40;99.90;;;;;;4962557;28;20362;-85
2023/06/21 04:27:03;;;;;;;43.78;35.70;;;19.50;99.90;;;;;;4977961;28;20081;-86
2023/06/21 04:29:29;;;;;;;54.38;40.72;;;19.30;99.90;;;;;;4974078;28;20049;-87
2023/06/21 04:31:56;;;;;;;52.92;40.90;;;19.40;99.90;;;;;;4961774;28;20038;-88
2023/06/21 04:34:22;;;;;;;51.53;40.08;;;19.40;99.90;;;;;;4948594;28;20049;-86
2023/06/21 04:36:48;;;;;;;54.08;42.50;;;19.50;99.90;;;;;;4979228;28;20041;-86
2023/06/21 04:39:18;;;;;;;49.38;37.13;;;19.50;99.90;;;;;;4976411;28;20043;-86
2023/06/21 04:41:54;;;;;;;56.85;41.85;;;19.40;99.90;;;;;;4977913;28;20097;-87
2023/06/21 04:44:20;;;;;;;53.35;41.72;;;19.40;99.90;;;;;;4962673;28;20477;-87
2023/06/21 04:46:46;;;;;;;52.50;39.97;;;19.40;99.90;;;;;;4978842;28;20550;-88
2023/06/21 04:49:11;;;;;;;53.88;42.28;;;19.50;99.90;;;;;;4979378;28;20042;-88
2023/06/21 04:51:37;;;;;;;37.28;30.75;;;19.50;99.90;;;;;;4962156;28;20406;-87
2023/06/21 04:54:03;;;;;;;48.92;38.13;;;19.60;99.90;;;;;;4995789;28;20050;-87
2023/06/21 04:56:29;;;;;;;54.10;40.33;;;19.50;99.90;;;;;;4974173;28;20039;-86
2023/06/21 04:58:56;;;;;;;39.40;33.35;;;19.60;99.90;;;;;;4961871;28;20046;-87
2023/06/21 05:01:27;;;;;;;47.55;37.97;;;19.60;99.90;;;;;;4976547;28;20114;-86
2023/06/21 05:03:53;;;;;;;33.22;27.23;;;19.60;99.90;;;;;;4961866;28;20074;-86
2023/06/21 05:06:23;;;;;;;49.85;39.63;;;19.60;99.90;;;;;;4994751;28;20336;-86
2023/06/21 05:08:48;;;;;;;44.17;34.42;;;19.60;99.90;;;;;;4974071;28;20042;-87
2023/06/21 05:11:14;;;;;;;51.22;37.97;;;19.60;99.90;;;;;;4959539;28;20065;-86
2023/06/21 05:13:40;;;;;;;39.83;31.45;;;19.70;99.90;;;;;;4993587;28;20054;-86
2023/06/21 05:16:06;;;;;;;40.03;30.77;;;19.60;99.90;;;;;;4957798;28;20161;-87
2023/06/21 05:18:32;;;;;;;46.03;35.38;;;19.70;99.90;;;;;;4990768;28;20121;-89
2023/06/21 05:20:58;;;;;;;44.97;33.97;;;19.70;99.90;;;;;;4975994;28;20043;-89
2023/06/21 05:23:24;;;;;;;41.05;32.25;;;19.70;99.90;;;;;;4990981;28;20505;-87
2023/06/21 05:25:49;;;;;;;41.17;33.58;;;19.80;99.90;;;;;;4994216;28;20076;-87
2023/06/21 05:28:15;;;;;;;35.00;27.70;;;19.80;99.90;;;;;;4983346;28;20074;-89
2023/06/21 05:30:42;;;;;;;40.38;31.13;;;19.70;99.90;;;;;;4990321;28;20050;-94
2023/06/21 05:33:08;;;;;;;35.22;27.85;;;19.90;99.90;;;;;;4983154;28;20100;-91
2023/06/21 05:35:36;;;;;;;34.83;27.27;;;19.90;99.90;;;;;;4981951;28;20101;-91
2023/06/21 05:38:03;;;;;;;34.97;26.63;;;19.90;99.90;;;;;;4980340;28;20034;-93
2023/06/21 05:40:29;;;;;;;33.75;25.08;;;19.90;99.90;;;;;;4965504;28;20113;-92
2023/06/21 05:42:54;;;;;;;26.05;21.17;;;19.90;99.90;;;;;;4976859;28;20510;-88
2023/06/21 05:45:20;;;;;;;31.38;23.83;;;20.10;99.90;;;;;;4957615;28;20350;-87
2023/06/21 05:47:46;;;;;;;29.58;23.90;;;19.90;99.90;;;;;;4955596;28;20273;-88
2023/06/21 05:50:12;;;;;;;32.15;23.50;;;20.00;99.90;;;;;;4973595;28;20433;-87
2023/06/21 05:52:37;;;;;;;32.38;24.98;;;20.00;99.90;;;;;;4975591;28;20046;-89
2023/06/21 05:55:04;;;;;;;33.03;24.75;;;20.00;99.90;;;;;;4958851;28;20093;-89
2023/06/21 05:57:30;;;;;;;35.00;22.80;;;20.00;99.90;;;;;;4968116;28;20050;-88
2023/06/21 05:59:57;;;;;;;29.67;23.00;;;20.00;99.90;;;;;;4972139;28;20107;-89
2023/06/21 06:02:25;;;;;;;29.83;22.80;;;20.00;99.90;;;;;;4972353;28;20062;-90
2023/06/21 06:04:53;;;;;;;30.40;21.17;;;20.10;99.90;;;;;;4988912;28;20046;-88
2023/06/21 06:07:19;;;;;;;31.88;22.75;;;20.10;99.90;;;;;;4992678;28;20042;-92
2023/06/21 06:09:46;;;;;;;24.95;18.83;;;20.10;99.90;;;;;;4993558;28;20405;-90
2023/06/21 06:12:12;;;;;;;28.02;20.92;;;20.10;99.90;;;;;;4998707;28;20046;-88
2023/06/21 06:14:38;;;;;;;24.98;19.13;;;20.10;99.90;;;;;;4990041;28;20041;-90
2023/06/21 06:17:03;;;;;;;24.58;17.27;;;20.10;99.90;;;;;;4975407;28;21515;-90
2023/06/21 06:19:29;;;;;;;24.00;18.05;;;20.10;99.90;;;;;;4974167;28;20046;-91
2023/06/21 06:21:56;;;;;;;26.05;18.25;;;20.10;99.90;;;;;;4981888;28;20034;-96
2023/06/21 06:24:22;;;;;;;22.95;17.00;;;20.10;99.90;;;;;;5006388;28;20053;-96
2023/06/21 06:26:50;;;;;;;23.17;16.35;;;20.10;99.90;;;;;;4991080;28;20070;-96
2023/06/21 07:15:20;;;;;;;17.15;11.32;;;20.90;99.90;;;;;;4994357;28;20058;-95
2023/06/21 07:17:47;;;;;;;15.10;11.15;;;21.10;99.90;;;;;;4999368;28;20072;-95
2023/06/21 07:20:17;;;;;;;15.77;10.35;;;21.30;99.90;;;;;;5009665;28;20482;-92
2023/06/21 07:22:43;;;;;;;13.30;10.20;;;21.50;99.90;;;;;;5017164;28;20148;-91
2023/06/21 07:25:09;;;;;;;15.57;9.80;;;21.80;99.90;;;;;;4980071;28;20049;-91
2023/06/21 07:27:37;;;;;;;14.95;9.05;;;22.00;99.90;;;;;;4993697;28;20421;-90
2023/06/21 07:30:05;;;;;;;16.73;9.90;;;22.00;99.90;;;;;;4997854;28;20050;-92
2023/06/21 07:32:32;;;;;;;11.85;8.95;;;22.30;99.90;;;;;;5014950;28;20554;-91
2023/06/21 07:34:58;;;;;;;12.77;8.80;;;22.40;99.90;;;;;;4981710;28;20034;-91
2023/06/21 07:37:28;;;;;;;10.43;7.40;;;22.50;99.90;;;;;;5017569;28;20041;-92
2023/06/21 07:39:57;;;;;;;13.60;8.10;;;22.70;99.90;;;;;;5015747;28;20049;-90
2023/06/21 07:42:23;;;;;;;12.00;7.85;;;22.90;99.90;;;;;;4995367;28;20038;-92
2023/06/21 07:45:01;;;;;;;12.68;7.85;;;23.00;99.90;;;;;;5019834;28;20062;-91
2023/06/21 07:47:27;;;;;;;12.85;7.95;;;23.20;99.90;;;;;;4994010;28;20045;-91
2023/06/21 07:49:56;;;;;;;12.18;7.72;;;23.40;99.90;;;;;;4979739;28;20112;-90
2023/06/21 07:52:22;;;;;;;14.52;8.77;;;23.50;99.90;;;;;;4999067;28;20046;-89
2023/06/21 07:54:49;;;;;;;11.35;8.23;;;23.50;99.90;;;;;;4994481;28;20045;-91
2023/06/21 07:57:18;;;;;;;14.35;7.72;;;23.60;99.90;;;;;;5013422;28;20053;-91
2023/06/21 07:59:48;;;;;;;12.30;7.80;;;23.60;99.90;;;;;;4995821;28;20041;-92
2023/06/21 08:02:20;;;;;;;11.88;7.30;;;23.70;99.90;;;;;;4995442;28;20590;-91
2023/06/21 08:04:47;;;;;;;11.52;7.85;;;23.70;99.90;;;;;;4980143;28;20038;-91
2023/06/21 08:07:14;;;;;;;10.45;7.35;;;23.90;99.90;;;;;;4976233;28;20092;-92
2023/06/21 08:09:40;;;;;;;10.07;7.00;;;23.90;99.90;;;;;;4998114;28;20105;-92
2023/06/21 08:12:06;;;;;;;13.27;8.60;;;23.90;99.90;;;;;;5008810;28;20546;-91
2023/06/21 08:14:32;;;;;;;10.98;8.27;;;23.90;99.90;;;;;;4996779;28;20042;-92
2023/06/21 08:16:57;;;;;;;15.55;7.72;;;24.00;99.90;;;;;;4997564;28;20065;-91
2023/06/21 08:19:23;;;;;;;9.45;7.50;;;24.10;99.90;;;;;;4988739;28;20046;-91
2023/06/21 08:21:49;;;;;;;12.15;6.68;;;24.10;99.90;;;;;;4992257;28;20049;-91
2023/06/21 08:24:17;;;;;;;9.93;6.47;;;24.20;99.90;;;;;;4998430;28;20075;-91
2023/06/21 08:26:43;;;;;;;10.38;6.93;;;24.40;99.90;;;;;;4987546;28;20034;-92
2023/06/21 08:29:08;;;;;;;9.90;7.07;;;24.40;99.90;;;;;;4998010;28;20088;-92
2023/06/21 08:31:39;;;;;;;11.30;7.05;;;24.40;99.90;;;;;;4990983;28;20049;-91
2023/06/21 08:34:05;;;;;;;9.30;6.05;;;24.50;99.90;;;;;;4975418;28;20057;-92
2023/06/21 08:36:31;;;;;;;10.50;6.60;;;24.50;99.90;;;;;;4984276;28;20211;-92
2023/06/21 08:38:59;;;;;;;9.77;6.68;;;24.50;99.90;;;;;;5015956;28;20098;-92
2023/06/21 08:41:26;;;;;;;9.95;5.93;;;24.50;99.90;;;;;;4994769;28;20041;-93
2023/06/21 08:43:52;;;;;;;10.43;6.90;;;24.40;99.90;;;;;;4998164;28;20049;-92
2023/06/21 08:46:22;;;;;;;8.73;6.00;;;24.20;99.90;;;;;;4964118;28;20042;-91
2023/06/21 08:48:50;;;;;;;8.52;6.13;;;24.10;99.90;;;;;;5010049;28;20045;-91
2023/06/21 08:51:16;;;;;;;10.27;5.50;;;24.00;99.90;;;;;;5013504;28;20042;-92
2023/06/21 08:54:13;;;;;;;8.38;6.10;;;24.00;99.90;;;;;;4983536;28;20134;-93
2023/06/21 08:56:55;;;;;;;9.75;5.68;;;24.00;99.90;;;;;;4988781;28;20503;-92
2023/06/21 10:15:44;;;;;;;5.93;3.88;;;26.00;99.90;;;;;;4319066;26;20643;-94
2023/06/21 10:18:12;;;;;;;4.93;2.33;;;26.00;99.90;;;;;;4991235;28;20051;-92
2023/06/21 10:20:40;;;;;;;9.25;3.72;;;26.00;99.90;;;;;;4970994;28;20114;-92
2023/06/21 10:23:08;;;;;;;6.20;3.95;;;26.10;99.90;;;;;;4983689;28;20319;-92
2023/06/21 10:25:36;;;;;;;6.93;3.33;;;26.30;99.90;;;;;;4978200;28;20043;-92
2023/06/21 10:28:05;;;;;;;5.28;3.00;;;26.30;99.90;;;;;;4962085;28;20504;-92
2023/06/21 10:30:33;;;;;;;5.35;2.90;;;26.20;99.90;;;;;;4979551;28;20043;-93
2023/06/21 10:33:02;;;;;;;5.63;2.58;;;26.20;99.90;;;;;;4986116;28;20038;-94
2023/06/21 10:35:33;;;;;;;6.22;2.60;;;26.20;99.90;;;;;;4962599;28;20047;-94
2023/06/21 10:38:05;;;;;;;5.38;2.75;;;26.30;99.90;;;;;;4953992;28;20528;-94
2023/06/21 10:40:35;;;;;;;5.22;2.63;;;26.30;99.90;;;;;;4971044;28;20043;-93
2023/06/21 10:43:01;;;;;;;5.53;2.70;;;26.30;99.90;;;;;;4959189;28;20089;-96
2023/06/21 10:45:29;;;;;;;6.30;2.67;;;26.20;99.90;;;;;;4959526;28;20165;-94
2023/06/21 10:47:55;;;;;;;6.57;2.80;;;26.10;99.90;;;;;;4968894;28;20047;-94
2023/06/21 10:50:21;;;;;;;5.10;2.50;;;26.00;99.90;;;;;;4969618;28;20079;-94
2023/06/21 10:52:52;;;;;;;5.57;2.40;;;26.00;99.90;;;;;;4967394;28;20101;-94
2023/06/21 10:55:20;;;;;;;5.68;2.72;;;26.10;99.90;;;;;;4959019;28;20045;-94
2023/06/21 10:57:47;;;;;;;4.07;2.13;;;26.30;99.90;;;;;;4959765;28;20053;-94
2023/06/21 11:00:14;;;;;;;7.38;2.33;;;26.40;99.90;;;;;;4965854;28;20089;-96
2023/06/21 11:02:40;;;;;;;4.07;1.80;;;26.50;99.80;;;;;;4991474;28;20132;-95
2023/06/21 11:05:25;;;;;;;6.57;2.28;;;26.60;99.50;;;;;;4974598;28;21788;-94
2023/06/21 11:07:54;;;;;;;5.28;2.20;;;26.80;99.20;;;;;;4977920;28;20041;-94
2023/06/21 11:10:28;;;;;;;4.45;2.08;;;26.90;98.60;;;;;;4952366;28;20038;-96
2023/06/21 11:12:55;;;;;;;5.65;2.38;;;27.00;98.80;;;;;;4982892;28;20057;-93
2023/06/21 11:15:24;;;;;;;4.22;1.80;;;27.00;98.80;;;;;;4972224;28;20054;-93
2023/06/21 11:18:07;;;;;;;4.30;2.22;;;27.10;98.60;;;;;;4953700;28;20043;-94
2023/06/21 11:20:46;;;;;;;3.80;2.10;;;27.20;98.40;;;;;;4987033;28;20077;-92
2023/06/21 11:23:16;;;;;;;8.55;2.03;;;27.30;98.60;;;;;;4967524;28;20050;-93
2023/06/21 11:25:52;;;;;;;3.17;1.95;;;27.30;98.60;;;;;;4977284;28;20042;-92
2023/06/21 11:28:25;;;;;;;4.72;2.10;;;27.30;98.30;;;;;;4986781;28;20097;-93
2023/06/21 11:31:14;;;;;;;4.47;2.10;;;27.20;98.40;;;;;;4981401;28;20516;-92
2023/06/21 11:33:52;;;;;;;6.03;1.60;;;27.10;98.40;;;;;;4966618;28;20121;-93
2023/06/21 11:36:29;;;;;;;4.60;1.85;;;27.00;97.60;;;;;;4972169;28;20039;-94
2023/06/21 11:39:04;;;;;;;4.45;1.83;;;27.00;98.00;;;;;;4965592;28;20073;-93
2023/06/21 11:41:40;;;;;;;7.55;1.90;;;27.00;98.00;;;;;;4978517;28;20057;-93
2023/06/21 11:44:08;;;;;;;5.25;2.00;;;27.10;97.90;;;;;;4954537;28;20117;-91
2023/06/21 11:46:34;;;;;;;2.92;1.35;;;27.20;98.10;;;;;;4956265;28;20045;-93
2023/06/21 11:49:00;;;;;;;4.32;1.60;;;27.30;97.50;;;;;;4971929;28;20401;-93
2023/06/21 11:51:28;;;;;;;4.07;1.80;;;27.30;97.40;;;;;;4988576;28;20054;-93
2023/06/21 11:53:55;;;;;;;4.97;1.60;;;27.30;97.30;;;;;;4980473;28;20038;-93
2023/06/21 11:56:21;;;;;;;4.28;1.90;;;27.20;97.30;;;;;;4964856;28;20050;-92
2023/06/21 11:58:50;;;;;;;4.00;1.50;;;27.10;97.40;;;;;;4963059;28;20060;-92
2023/06/21 12:01:16;;;;;;;4.68;1.88;;;27.00;97.90;;;;;;4962827;28;20058;-93
2023/06/21 12:03:41;;;;;;;4.85;2.30;;;27.10;98.00;;;;;;4989697;28;20043;-93
2023/06/21 12:06:07;;;;;;;5.65;1.90;;;27.10;97.90;;;;;;4964537;28;20066;-93
2023/06/21 12:08:37;;;;;;;3.92;1.92;;;27.10;97.60;;;;;;4965393;28;20042;-94
2023/06/21 12:11:08;;;;;;;4.70;2.00;;;26.90;97.30;;;;;;4982551;28;20034;-89
2023/06/21 12:13:35;;;;;;;10.38;2.28;;;26.80;98.00;;;;;;4967185;28;20115;-89
2023/06/21 12:16:06;;;;;;;4.20;1.90;;;26.70;98.10;;;;;;4921955;28;1486108;-89
2023/06/21 12:18:36;;;;;;;7.38;1.90;;;26.80;98.60;;;;;;4985664;28;20093;-88
2023/06/21 12:21:07;;;;;;;5.80;1.70;;;26.80;97.30;;;;;;4977098;28;20051;-88
2023/06/21 12:23:33;;;;;;;4.88;2.40;;;26.80;97.50;;;;;;4979436;28;20051;-87
2023/06/21 12:26:07;;;;;;;6.63;2.10;;;26.80;97.30;;;;;;4976591;28;20053;-92
2023/06/21 12:28:36;;;;;;;6.20;2.13;;;26.80;97.10;;;;;;4975733;28;20061;-95
2023/06/21 12:31:08;;;;;;;4.82;2.72;;;26.70;97.20;;;;;;4965476;28;20070;-92
2023/06/21 12:33:39;;;;;;;6.55;2.42;;;26.60;97.20;;;;;;4971229;28;21365;-91
2023/06/21 12:36:26;;;;;;;4.97;2.08;;;26.50;97.60;;;;;;4984485;28;20046;-91
2023/06/21 12:38:55;;;;;;;4.30;2.28;;;26.50;97.60;;;;;;4973795;28;20177;-96
2023/06/21 12:41:23;;;;;;;3.78;2.03;;;26.60;97.50;;;;;;4980377;28;20098;-90
2023/06/21 12:43:51;;;;;;;4.38;1.52;;;26.90;97.40;;;;;;4976140;28;20149;-88
2023/06/21 12:46:17;;;;;;;5.22;2.20;;;27.10;97.30;;;;;;4984925;28;20047;-94
2023/06/21 12:48:55;;;;;;;5.95;1.85;;;27.20;96.60;;;;;;4985547;28;20044;-93
2023/06/21 12:51:24;;;;;;;7.68;1.80;;;27.30;95.90;;;;;;4984729;28;20061;-95
2023/06/21 12:54:02;;;;;;;3.28;1.00;;;27.40;96.30;;;;;;4996542;28;20074;-93
2023/06/21 12:56:34;;;;;;;4.43;1.48;;;27.60;95.90;;;;;;4988462;28;20039;-88
2023/06/21 12:59:00;;;;;;;2.97;1.80;;;27.70;95.30;;;;;;4981748;28;20067;-92
2023/06/21 13:01:28;;;;;;;2.85;1.33;;;27.80;94.90;;;;;;4988718;28;20490;-95
2023/06/21 13:03:55;;;;;;;4.25;1.73;;;27.90;94.60;;;;;;4982149;28;20030;-92
2023/06/21 13:06:33;;;;;;;9.15;1.67;;;28.00;94.30;;;;;;5012159;28;20033;-96
2023/06/21 13:08:59;;;;;;;3.83;1.95;;;28.00;93.70;;;;;;4997481;28;20143;-95
2023/06/21 13:11:27;;;;;;;3.72;1.42;;;27.90;93.20;;;;;;4954767;28;20085;-91
2023/06/21 13:13:53;;;;;;;4.38;1.50;;;28.00;93.70;;;;;;4975508;28;20042;-91
2023/06/21 13:16:19;;;;;;;2.70;1.30;;;28.00;94.30;;;;;;4958652;28;20070;-89
2023/06/21 13:18:46;;;;;;;4.40;1.65;;;28.10;94.30;;;;;;4975769;28;20070;-95
2023/06/21 13:21:16;;;;;;;5.35;1.45;;;28.20;93.80;;;;;;4989639;28;20470;-93
2023/06/21 13:23:46;;;;;;;3.47;1.35;;;28.20;93.80;;;;;;4976499;28;20042;-94
2023/06/21 13:26:25;;;;;;;4.72;1.73;;;28.20;93.60;;;;;;4985209;28;20482;-93
2023/06/21 13:28:50;;;;;;;5.15;1.77;;;28.20;93.60;;;;;;4992922;28;20038;-95
2023/06/21 13:31:19;;;;;;;5.60;2.08;;;28.20;93.60;;;;;;4977451;28;20057;-85
2023/06/21 13:33:45;;;;;;;4.68;1.30;;;28.20;93.90;;;;;;4993140;28;20079;-93
2023/06/21 13:36:11;;;;;;;5.38;1.50;;;28.20;93.50;;;;;;4965558;28;20511;-93
2023/06/21 13:38:38;;;;;;;2.90;1.35;;;28.00;93.30;;;;;;4975831;28;20053;-95
2023/06/21 13:41:06;;;;;;;3.50;1.40;;;28.00;93.30;;;;;;4974891;28;20112;-94
2023/06/21 13:43:32;;;;;;;4.03;1.33;;;28.00;93.10;;;;;;4981596;28;20039;-90
2023/06/21 13:45:58;;;;;;;3.78;1.27;;;28.10;93.20;;;;;;4991602;28;20046;-90
2023/06/21 13:48:24;;;;;;;3.58;1.67;;;28.10;93.20;;;;;;4982413;28;20031;-86
2023/06/21 13:50:51;;;;;;;3.08;1.70;;;28.10;93.40;;;;;;4993579;28;20525;-91
2023/06/21 13:53:18;;;;;;;4.07;1.48;;;28.10;93.50;;;;;;4991075;28;20073;-96
2023/06/21 13:55:56;;;;;;;3.40;1.35;;;28.10;93.10;;;;;;4988330;28;20042;-96
2023/06/21 15:42:28;;;;;;;3.97;1.42;;;28.00;91.50;;;;;;4956769;28;20479;-95
2023/06/21 16:57:08;;;;;;;5.30;2.15;;;26.70;93.90;;;;;;3291041;26;20051;-89
2023/06/21 16:59:37;;;;;;;6.15;2.45;;;26.60;93.50;;;;;;4920199;29;20576;-90
2023/06/21 17:02:03;;;;;;;7.55;2.53;;;26.60;94.00;;;;;;4921092;29;20075;-90
2023/06/21 17:04:28;;;;;;;5.68;2.03;;;26.60;93.80;;;;;;4922930;29;20406;-90
2023/06/21 17:06:54;;;;;;;4.85;1.92;;;26.50;94.00;;;;;;4926023;29;20043;-91
2023/06/21 17:09:20;;;;;;;5.15;1.83;;;26.40;94.20;;;;;;4929175;29;20043;-90
2023/06/21 17:11:46;;;;;;;4.65;1.90;;;26.50;94.10;;;;;;4926707;29;20051;-90
2023/06/21 17:14:12;;;;;;;4.32;2.17;;;26.40;94.00;;;;;;4942506;29;20509;-90
2023/06/21 17:16:38;;;;;;;3.50;2.00;;;26.40;94.20;;;;;;4929492;29;20514;-87
2023/06/21 17:19:04;;;;;;;5.45;1.80;;;26.40;94.20;;;;;;4925211;29;20048;-89
2023/06/21 17:21:29;;;;;;;4.18;1.75;;;26.30;94.10;;;;;;4912463;29;20051;-91
2023/06/21 17:23:56;;;;;;;9.30;2.20;;;26.20;94.00;;;;;;4940174;29;20055;-90
2023/06/21 17:26:22;;;;;;;5.95;1.80;;;26.20;94.10;;;;;;4928420;29;20039;-89
2023/06/21 17:28:47;;;;;;;6.13;2.03;;;26.20;94.10;;;;;;4910909;29;20073;-89
2023/06/21 17:31:13;;;;;;;4.63;1.60;;;26.10;94.20;;;;;;4926897;29;20402;-90
2023/06/21 17:33:38;;;;;;;3.70;1.83;;;26.10;94.30;;;;;;4924637;29;20035;-90
2023/06/21 17:36:04;;;;;;;6.00;2.70;;;26.00;94.30;;;;;;4940222;29;20043;-90
2023/06/21 17:38:30;;;;;;;5.05;1.98;;;26.00;94.50;;;;;;4916761;29;20051;-89
2023/06/21 17:40:56;;;;;;;5.47;2.03;;;25.90;94.60;;;;;;4928335;29;20064;-89